createdAt,value
2023-06-05T00:00:39.925Z,2.87
2023-06-05T00:03:07.814Z,3.10
2023-06-05T00:05:37.455Z,2.97
2023-06-05T00:08:05.297Z,2.83
2023-06-05T00:10:33.029Z,3.07
2023-06-05T00:13:00.856Z,2.50
2023-06-05T00:15:28.629Z,2.73
2023-06-05T00:17:57.067Z,2.73
2023-06-05T00:20:24.827Z,3.00
2023-06-05T00:22:54.019Z,2.80
2023-06-05T00:25:21.764Z,3.93
2023-06-05T00:27:49.663Z,2.83
2023-06-05T00:30:17.426Z,3.07
2023-06-05T00:32:45.250Z,3.10
2023-06-05T00:35:12.953Z,3.00
2023-06-05T00:37:41.085Z,2.50
2023-06-05T00:40:10.749Z,2.50
2023-06-05T00:42:38.610Z,2.90
2023-06-05T00:45:07.097Z,2.70
2023-06-05T00:47:36.504Z,2.53
2023-06-05T00:50:05.357Z,3.10
2023-06-05T00:52:34.572Z,2.43
2023-06-05T00:55:04.008Z,2.70
2023-06-05T00:57:35.803Z,2.73
2023-06-05T01:00:08.114Z,2.30
2023-06-05T01:02:38.478Z,2.93
2023-06-05T01:05:07.130Z,2.70
2023-06-05T01:07:35.866Z,2.80
2023-06-05T01:10:04.956Z,2.40
2023-06-05T01:12:38.471Z,2.70
2023-06-05T01:15:09.899Z,2.57
2023-06-05T01:17:39.065Z,2.37
2023-06-05T01:20:10.089Z,2.70
2023-06-05T01:22:38.419Z,3.10
2023-06-05T01:25:10.510Z,2.53
2023-06-05T01:27:44.544Z,2.53
2023-06-05T01:30:17.919Z,2.77
2023-06-05T01:32:54.785Z,2.97
2023-06-05T01:35:28.936Z,2.90
2023-06-05T01:37:59.996Z,2.47
2023-06-05T01:40:29.745Z,2.50
2023-06-05T01:42:59.050Z,2.90
2023-06-05T01:45:27.259Z,3.33
2023-06-05T01:47:55.992Z,2.33
2023-06-05T01:50:23.767Z,2.83
2023-06-05T01:52:53.430Z,2.20
2023-06-05T01:55:24.934Z,2.80
2023-06-05T01:57:54.451Z,2.67
2023-06-05T02:00:22.423Z,2.57
2023-06-05T02:02:51.904Z,2.70
2023-06-05T02:05:21.262Z,2.23
2023-06-05T02:07:54.836Z,2.43
2023-06-05T02:10:23.107Z,2.50
2023-06-05T02:12:50.852Z,2.70
2023-06-05T02:15:20.204Z,2.57
2023-06-05T02:17:51.793Z,2.63
2023-06-05T02:20:21.598Z,2.57
2023-06-05T02:22:51.210Z,2.33
2023-06-05T02:25:19.000Z,2.50
2023-06-05T02:27:47.018Z,2.50
2023-06-05T02:30:15.532Z,2.80
2023-06-05T02:32:44.961Z,2.43
2023-06-05T02:35:13.717Z,2.77
2023-06-05T02:37:44.317Z,2.47
2023-06-05T02:40:13.477Z,2.47
2023-06-05T02:42:42.359Z,2.57
2023-06-05T02:45:11.582Z,2.50
2023-06-05T02:47:39.467Z,2.43
2023-06-05T02:50:09.612Z,2.40
2023-06-05T02:52:39.940Z,2.90
2023-06-05T02:55:09.242Z,2.70
2023-06-05T02:57:42.058Z,2.80
2023-06-05T03:00:11.080Z,2.20
2023-06-05T03:02:38.811Z,3.33
2023-06-05T03:05:10.081Z,2.50
2023-06-05T03:07:37.824Z,2.50
2023-06-05T03:10:06.686Z,2.50
2023-06-05T03:12:34.409Z,2.43
2023-06-05T03:15:04.052Z,2.80
2023-06-05T03:17:31.774Z,2.50
2023-06-05T03:19:59.565Z,2.53
2023-06-05T03:22:28.652Z,2.53
2023-06-05T03:24:56.755Z,2.60
2023-06-05T03:27:24.646Z,2.70
2023-06-05T03:29:52.441Z,2.67
2023-06-05T03:32:21.124Z,2.87
2023-06-05T03:34:49.775Z,3.20
2023-06-05T03:37:17.667Z,2.60
2023-06-05T03:39:46.726Z,2.90
2023-06-05T03:42:14.513Z,2.77
2023-06-05T03:44:42.481Z,2.60
2023-06-05T03:47:10.344Z,2.70
2023-06-05T03:49:38.592Z,2.80
2023-06-05T03:52:08.967Z,2.50
2023-06-05T03:54:37.470Z,2.80
2023-06-05T03:57:10.690Z,2.47
2023-06-05T03:59:38.512Z,3.33
2023-06-05T04:02:08.619Z,2.70
2023-06-05T04:04:36.611Z,2.77
2023-06-05T04:07:04.606Z,2.50
2023-06-05T04:09:32.613Z,2.40
2023-06-05T04:12:00.722Z,2.90
2023-06-05T04:14:29.791Z,2.90
2023-06-05T04:16:57.758Z,2.63
2023-06-05T04:19:25.599Z,2.53
2023-06-05T04:21:53.437Z,2.60
2023-06-05T04:24:21.286Z,3.20
2023-06-05T04:26:50.813Z,2.77
2023-06-05T04:29:19.421Z,2.87
2023-06-05T04:31:49.538Z,3.07
2023-06-05T04:34:19.423Z,2.70
2023-06-05T04:36:51.367Z,3.40
2023-06-05T04:39:19.676Z,3.50
2023-06-05T04:41:57.025Z,3.00
2023-06-05T04:44:31.201Z,3.10
2023-06-05T04:47:01.394Z,3.40
2023-06-05T04:49:29.956Z,2.83
2023-06-05T04:51:58.055Z,3.00
2023-06-05T04:54:25.765Z,3.30
2023-06-05T04:56:53.940Z,2.83
2023-06-05T04:59:21.800Z,3.10
2023-06-05T05:01:53.647Z,3.07
2023-06-05T05:04:23.421Z,3.27
2023-06-05T05:06:52.721Z,2.80
2023-06-05T05:09:20.954Z,3.20
2023-06-05T05:11:48.790Z,3.60
2023-06-05T05:14:16.736Z,3.20
2023-06-05T05:16:44.518Z,3.37
2023-06-05T05:19:12.765Z,2.90
2023-06-05T05:21:41.944Z,2.90
2023-06-05T05:24:10.511Z,3.50
2023-06-05T05:26:40.800Z,2.80
2023-06-05T05:29:08.938Z,2.90
2023-06-05T05:31:36.954Z,3.50
2023-06-05T05:34:05.102Z,3.37
2023-06-05T05:36:34.338Z,3.00
2023-06-05T05:39:03.897Z,3.10
2023-06-05T05:41:31.856Z,3.30
2023-06-05T05:43:59.561Z,3.70
2023-06-05T05:46:27.826Z,4.13
2023-06-05T05:48:56.053Z,3.17
2023-06-05T05:51:23.994Z,3.73
2023-06-05T05:53:52.113Z,3.00
2023-06-05T05:56:21.288Z,3.17
2023-06-05T05:58:49.422Z,3.93
2023-06-05T06:01:17.462Z,4.03
2023-06-05T06:03:45.513Z,3.47
2023-06-05T06:06:13.563Z,3.90
2023-06-05T06:08:41.525Z,3.80
2023-06-05T06:11:10.773Z,3.40
2023-06-05T06:13:40.628Z,3.27
2023-06-05T06:16:08.664Z,3.23
2023-06-05T06:18:36.851Z,3.60
2023-06-05T06:21:05.966Z,3.40
2023-06-05T06:23:33.975Z,2.80
2023-06-05T06:26:02.170Z,3.77
2023-06-05T06:28:30.047Z,3.13
2023-06-05T06:30:59.234Z,3.40
2023-06-05T06:33:27.041Z,3.93
2023-06-05T06:35:54.940Z,3.57
2023-06-05T06:38:25.139Z,3.50
2023-06-05T06:40:53.039Z,3.30
2023-06-05T06:43:20.859Z,3.30
2023-06-05T06:45:48.738Z,3.50
2023-06-05T06:48:19.641Z,4.00
2023-06-05T06:50:48.059Z,3.33
2023-06-05T06:53:16.180Z,3.47
2023-06-05T06:55:44.253Z,5.50
2023-06-05T06:58:12.193Z,3.53
2023-06-05T07:00:42.116Z,3.63
2023-06-05T07:03:10.171Z,4.27
2023-06-05T07:05:39.374Z,4.13
2023-06-05T07:08:07.806Z,4.10
2023-06-05T07:10:35.816Z,3.30
2023-06-05T07:13:03.740Z,3.77
2023-06-05T07:15:31.595Z,3.87
2023-06-05T07:17:59.408Z,3.77
2023-06-05T07:20:27.694Z,4.30
2023-06-05T07:22:57.696Z,4.37
2023-06-05T07:25:26.203Z,4.90
2023-06-05T07:27:54.020Z,4.20
2023-06-05T07:30:21.893Z,4.70
2023-06-05T07:32:49.779Z,4.30
2023-06-05T07:35:17.982Z,4.03
2023-06-05T07:37:45.892Z,4.53
2023-06-05T07:40:15.135Z,4.73
2023-06-05T07:42:43.074Z,5.67
2023-06-05T07:45:12.061Z,4.80
2023-06-05T07:47:40.187Z,4.63
2023-06-05T07:50:09.501Z,4.57
2023-06-05T07:52:38.857Z,4.83
2023-06-05T07:55:07.939Z,5.10
2023-06-05T07:57:37.761Z,5.10
2023-06-05T08:00:11.425Z,4.27
2023-06-05T08:02:40.298Z,5.03
2023-06-05T08:05:09.357Z,5.30
2023-06-05T08:07:37.491Z,5.20
2023-06-05T08:10:06.296Z,4.50
2023-06-05T08:12:34.220Z,5.70
2023-06-05T08:15:03.710Z,5.20
2023-06-05T08:17:31.589Z,5.27
2023-06-05T08:19:59.517Z,5.77
2023-06-05T08:22:27.656Z,5.07
2023-06-05T08:24:57.334Z,6.43
2023-06-05T08:27:25.068Z,5.63
2023-06-05T08:29:52.958Z,4.93
2023-06-05T08:32:22.670Z,5.40
2023-06-05T08:34:50.758Z,5.80
2023-06-05T08:37:18.933Z,5.60
2023-06-05T08:39:48.094Z,5.70
2023-06-05T08:42:19.465Z,5.53
2023-06-05T08:45:01.206Z,5.90
2023-06-05T08:47:32.246Z,6.03
2023-06-05T08:50:05.717Z,6.10
2023-06-05T08:52:36.755Z,5.63
2023-06-05T08:55:06.123Z,6.43
2023-06-05T08:57:34.423Z,5.90
2023-06-05T09:00:08.877Z,5.73
2023-06-05T09:02:39.405Z,5.50
2023-06-05T09:05:07.912Z,6.27
2023-06-05T09:07:35.875Z,6.90
2023-06-05T09:10:03.797Z,6.00
2023-06-05T09:12:33.466Z,6.33
2023-06-05T09:15:02.069Z,6.40
2023-06-05T09:17:29.909Z,5.60
2023-06-05T09:19:59.265Z,6.23
2023-06-05T09:22:35.820Z,5.60
2023-06-05T09:25:03.994Z,6.10
2023-06-05T09:27:34.297Z,5.90
2023-06-05T09:30:06.818Z,5.67
2023-06-05T09:32:34.779Z,5.50
2023-06-05T09:35:06.879Z,6.40
2023-06-05T09:37:36.905Z,6.37
2023-06-05T09:40:06.893Z,6.43
2023-06-05T09:42:35.703Z,5.87
2023-06-05T09:45:05.812Z,5.90
2023-06-05T09:47:45.582Z,5.90
2023-06-05T09:50:26.060Z,5.80
2023-06-05T09:52:56.595Z,5.93
2023-06-05T09:55:26.641Z,5.37
2023-06-05T09:58:02.861Z,6.20
2023-06-05T10:00:32.963Z,7.73
2023-06-05T10:03:02.410Z,5.50
2023-06-05T10:05:36.205Z,5.93
2023-06-05T10:08:04.790Z,5.20
2023-06-05T10:10:32.834Z,6.40
2023-06-05T10:13:02.448Z,5.80
2023-06-05T10:15:33.105Z,6.30
2023-06-05T10:18:02.362Z,5.50
2023-06-05T10:20:32.108Z,4.90
2023-06-05T10:23:00.623Z,6.10
2023-06-05T10:25:30.700Z,5.17
2023-06-05T10:28:14.500Z,5.60
2023-06-05T10:31:16.434Z,5.50
2023-06-05T10:34:04.791Z,5.27
2023-06-05T10:36:51.497Z,5.13
2023-06-05T10:39:19.950Z,4.57
2023-06-05T10:41:51.922Z,5.40
2023-06-05T10:44:19.988Z,4.53
2023-06-05T10:46:48.512Z,4.60
2023-06-05T10:49:18.522Z,5.10
2023-06-05T10:51:50.037Z,4.50
2023-06-05T10:54:56.934Z,4.30
2023-06-05T10:57:24.779Z,4.23
2023-06-05T11:00:08.915Z,4.90
2023-06-05T11:02:49.061Z,4.13
2023-06-05T11:05:17.121Z,4.37
2023-06-05T11:07:47.237Z,4.50
2023-06-05T11:10:19.450Z,4.50
2023-06-05T11:13:01.322Z,4.60
2023-06-05T11:15:44.361Z,4.30
2023-06-05T11:18:37.448Z,4.93
2023-06-05T11:21:05.831Z,4.80
2023-06-05T11:23:35.207Z,4.53
2023-06-05T11:26:42.287Z,4.40
2023-06-05T11:29:18.841Z,4.13
2023-06-05T11:31:48.149Z,3.57
2023-06-05T11:34:19.940Z,4.77
2023-06-05T11:36:48.503Z,4.07
2023-06-05T11:39:17.805Z,3.77
2023-06-05T11:41:47.535Z,4.07
2023-06-05T11:44:16.358Z,4.17
2023-06-05T11:46:45.661Z,3.90
2023-06-05T11:49:26.452Z,4.50
2023-06-05T11:51:54.525Z,3.90
2023-06-05T11:54:28.531Z,4.07
2023-06-05T11:57:03.046Z,4.60
2023-06-05T11:59:31.115Z,4.43
2023-06-05T12:01:59.172Z,4.33
2023-06-05T12:04:27.730Z,4.13
2023-06-05T12:06:56.741Z,4.23
2023-06-05T12:09:24.627Z,3.97
2023-06-05T12:11:55.353Z,4.13
2023-06-05T12:14:33.931Z,4.47
2023-06-05T12:17:04.102Z,4.57
2023-06-05T12:19:31.973Z,4.50
2023-06-05T12:22:07.804Z,4.07
2023-06-05T12:24:35.704Z,4.00
2023-06-05T12:27:07.577Z,3.90
2023-06-05T12:29:39.654Z,5.00
2023-06-05T12:32:23.405Z,5.00
2023-06-05T12:37:25.046Z,4.87
2023-06-05T12:39:53.230Z,4.30
2023-06-05T12:42:22.451Z,4.03
2023-06-05T12:44:51.303Z,5.00
2023-06-05T12:47:19.655Z,4.50
2023-06-05T12:49:47.705Z,4.30
2023-06-05T12:52:15.711Z,4.33
2023-06-05T12:54:43.743Z,4.30
2023-06-05T12:57:13.304Z,4.10
2023-06-05T12:59:43.533Z,4.43
2023-06-05T13:02:11.583Z,4.53
2023-06-05T13:04:39.569Z,4.50
2023-06-05T13:07:07.814Z,4.20
2023-06-05T13:09:35.944Z,4.27
2023-06-05T13:12:05.052Z,3.80
2023-06-05T13:14:33.071Z,4.30
2023-06-05T13:17:03.093Z,5.13
2023-06-05T13:19:31.063Z,4.53
2023-06-05T13:21:59.007Z,4.40
2023-06-05T13:24:27.305Z,5.07
2023-06-05T13:26:55.308Z,4.47
2023-06-05T13:29:23.645Z,4.60
2023-06-05T13:31:51.776Z,4.40
2023-06-05T13:34:21.144Z,4.60
2023-06-05T13:36:50.728Z,4.97
2023-06-05T13:39:19.001Z,5.27
2023-06-05T13:41:46.780Z,5.27
2023-06-05T13:44:14.654Z,5.57
2023-06-05T13:46:43.878Z,5.50
2023-06-05T13:49:12.361Z,5.43
2023-06-05T13:51:41.687Z,5.30
2023-06-05T13:54:09.614Z,4.80
2023-06-05T13:56:37.462Z,5.17
2023-06-05T13:59:05.683Z,5.27
2023-06-05T14:01:33.949Z,5.40
2023-06-05T14:04:01.999Z,4.87
2023-06-05T14:06:30.004Z,4.70
2023-06-05T14:08:59.349Z,5.03
2023-06-05T14:11:27.362Z,4.80
2023-06-05T14:13:55.280Z,4.73
2023-06-05T14:16:23.578Z,4.70
2023-06-05T14:18:51.786Z,5.07
2023-06-05T14:21:19.936Z,4.50
2023-06-05T14:23:48.365Z,4.80
2023-06-05T14:26:17.789Z,5.07
2023-06-05T14:28:46.053Z,4.70
2023-06-05T14:31:14.174Z,4.83
2023-06-05T14:33:42.129Z,4.93
2023-06-05T14:36:10.438Z,4.97
2023-06-05T14:38:38.447Z,4.50
2023-06-05T14:41:06.486Z,4.80
2023-06-05T14:43:35.841Z,4.70
2023-06-05T14:46:03.812Z,4.50
2023-06-05T14:48:32.294Z,4.40
2023-06-05T14:51:00.033Z,4.17
2023-06-05T14:53:28.580Z,5.27
2023-06-05T14:55:56.498Z,4.30
2023-06-05T14:58:24.528Z,5.30
2023-06-05T15:00:56.916Z,4.40
2023-06-05T15:03:27.829Z,4.73
2023-06-05T15:05:56.629Z,4.93
2023-06-05T15:08:25.289Z,4.83
2023-06-05T15:10:53.222Z,4.53
2023-06-05T15:13:22.930Z,5.20
2023-06-05T15:15:50.821Z,5.27
2023-06-05T15:18:19.896Z,4.73
2023-06-05T15:20:47.907Z,5.20
2023-06-05T15:23:17.007Z,4.70
2023-06-05T15:25:45.165Z,4.03
2023-06-05T15:28:13.331Z,4.47
2023-06-05T15:30:41.170Z,3.87
2023-06-05T15:33:09.007Z,4.50
2023-06-05T15:35:42.264Z,3.60
2023-06-05T15:38:10.097Z,4.23
2023-06-05T15:40:37.972Z,3.53
2023-06-05T15:43:07.894Z,4.30
2023-06-05T15:45:36.546Z,4.30
2023-06-05T15:48:05.430Z,4.13
2023-06-05T15:50:34.250Z,4.07
2023-06-05T15:53:03.732Z,3.73
2023-06-05T15:55:31.705Z,4.03
2023-06-05T15:57:59.450Z,4.37
2023-06-05T16:00:27.795Z,4.57
2023-06-05T16:02:57.944Z,4.20
2023-06-05T16:05:26.408Z,4.63
2023-06-05T16:07:54.106Z,4.03
2023-06-05T16:10:23.226Z,4.40
2023-06-05T16:12:52.463Z,4.53
2023-06-05T16:15:20.244Z,4.20
2023-06-05T16:17:50.339Z,4.30
2023-06-05T16:20:18.112Z,4.40
2023-06-05T16:22:46.048Z,4.37
2023-06-05T16:25:13.904Z,4.93
2023-06-05T16:27:43.029Z,4.63
2023-06-05T16:30:11.062Z,5.03
2023-06-05T16:32:38.841Z,4.10
2023-06-05T16:35:07.345Z,5.30
2023-06-05T16:37:35.305Z,4.17
2023-06-05T16:40:03.482Z,3.90
2023-06-05T16:42:31.252Z,4.10
2023-06-05T16:45:01.412Z,4.50
2023-06-05T16:47:30.155Z,4.47
2023-06-05T16:49:58.430Z,4.60
2023-06-05T16:52:26.632Z,4.70
2023-06-05T16:54:54.382Z,4.17
2023-06-05T16:57:22.235Z,4.63
2023-06-05T16:59:49.990Z,4.03
2023-06-05T17:02:19.348Z,4.17
2023-06-05T17:04:47.345Z,3.93
2023-06-05T17:07:15.699Z,4.07
2023-06-05T17:09:43.702Z,4.40
2023-06-05T17:12:11.474Z,4.40
2023-06-05T17:14:39.399Z,3.60
2023-06-05T17:17:07.148Z,3.60
2023-06-05T17:19:36.612Z,4.43
2023-06-05T17:22:04.637Z,3.70
2023-06-05T17:24:32.405Z,4.07
2023-06-05T17:27:02.348Z,4.20
2023-06-05T17:29:31.633Z,4.80
2023-06-05T17:32:00.818Z,4.07
2023-06-05T17:34:29.499Z,4.97
2023-06-05T17:36:58.583Z,4.73
2023-06-05T17:39:26.963Z,4.63
2023-06-05T17:41:54.721Z,4.00
2023-06-05T17:44:22.974Z,4.30
2023-06-05T17:46:50.870Z,4.60
2023-06-05T17:49:18.881Z,4.33
2023-06-05T17:51:47.791Z,4.37
2023-06-05T17:54:17.227Z,4.70
2023-06-05T17:56:45.077Z,4.83
2023-06-05T17:59:14.018Z,4.70
2023-06-05T18:01:42.433Z,5.17
2023-06-05T18:04:12.404Z,3.83
2023-06-05T18:06:41.848Z,14.80
2023-06-05T18:09:10.590Z,3.80
2023-06-05T18:11:43.709Z,4.50
2023-06-05T18:14:12.273Z,4.30
2023-06-05T18:16:40.094Z,4.70
2023-06-05T18:19:07.941Z,4.10
2023-06-05T18:21:38.228Z,4.67
2023-06-05T18:24:06.502Z,5.00
2023-06-05T18:26:34.350Z,4.40
2023-06-05T18:29:04.103Z,4.73
2023-06-05T18:31:31.896Z,4.50
2023-06-05T18:33:59.751Z,4.03
2023-06-05T18:36:27.556Z,4.07
2023-06-05T18:38:55.306Z,4.83
2023-06-05T18:41:23.619Z,4.87
2023-06-05T18:43:51.342Z,5.10
2023-06-05T18:46:20.870Z,4.50
2023-06-05T18:48:48.660Z,4.90
2023-06-05T18:51:17.087Z,4.37
2023-06-05T18:53:45.578Z,4.20
2023-06-05T18:56:13.714Z,5.00
2023-06-05T18:58:42.680Z,4.87
2023-06-05T19:01:10.974Z,4.87
2023-06-05T19:03:41.249Z,5.00
2023-06-05T19:06:09.328Z,4.90
2023-06-05T19:08:37.523Z,5.00
2023-06-05T19:11:05.498Z,4.53
2023-06-05T19:13:33.327Z,5.47
2023-06-05T19:16:01.094Z,4.70
2023-06-05T19:18:28.911Z,4.47
2023-06-05T19:20:58.096Z,4.87
2023-06-05T19:23:25.827Z,4.50
2023-06-05T19:25:53.618Z,5.10
2023-06-05T19:28:21.549Z,4.70
2023-06-05T19:30:49.768Z,5.57
2023-06-05T19:33:17.827Z,6.60
2023-06-05T19:35:46.077Z,5.87
2023-06-05T19:38:16.080Z,5.37
2023-06-05T19:40:43.982Z,5.83
2023-06-05T19:43:11.782Z,4.90
2023-06-05T19:45:40.229Z,6.37
2023-06-05T19:48:08.159Z,10.73
2023-06-05T19:50:37.426Z,6.00
2023-06-05T19:53:05.605Z,5.03
2023-06-05T19:55:34.959Z,5.87
2023-06-05T19:58:02.943Z,4.93
2023-06-05T20:00:30.959Z,5.17
2023-06-05T20:02:59.271Z,4.73
2023-06-05T20:05:27.728Z,5.47
2023-06-05T20:07:55.501Z,4.73
2023-06-05T20:10:23.324Z,4.77
2023-06-05T20:12:52.633Z,5.00
2023-06-05T20:15:20.728Z,5.20
2023-06-05T20:17:48.564Z,5.93
2023-06-05T20:20:17.751Z,5.30
2023-06-05T20:22:46.162Z,5.93
2023-06-05T20:25:13.956Z,5.43
2023-06-05T20:27:41.784Z,5.97
2023-06-05T20:30:11.431Z,5.13
2023-06-05T20:32:39.250Z,5.57
2023-06-05T20:35:09.550Z,4.50
2023-06-05T20:37:38.750Z,5.80
2023-06-05T20:40:11.252Z,6.30
2023-06-05T20:42:39.154Z,5.10
2023-06-05T20:45:08.840Z,5.43
2023-06-05T20:47:40.265Z,4.97
2023-06-05T20:50:09.848Z,5.30
2023-06-05T20:52:37.788Z,5.00
2023-06-05T20:55:07.445Z,5.27
2023-06-05T20:57:35.397Z,4.23
2023-06-05T21:00:10.560Z,5.03
2023-06-05T21:02:40.112Z,4.93
2023-06-05T21:05:08.403Z,4.50
2023-06-05T21:07:37.391Z,4.07
2023-06-05T21:10:06.014Z,4.20
2023-06-05T21:12:34.115Z,4.60
2023-06-05T21:15:01.956Z,4.40
2023-06-05T21:17:29.737Z,3.47
2023-06-05T21:19:59.265Z,3.70
2023-06-05T21:22:27.418Z,3.80
2023-06-05T21:24:55.095Z,3.40
2023-06-05T21:27:22.891Z,3.10
2023-06-05T21:29:51.167Z,3.30
2023-06-05T21:32:22.007Z,3.20
2023-06-05T21:34:50.558Z,3.00
2023-06-05T21:37:20.353Z,3.57
2023-06-05T21:39:48.433Z,3.43
2023-06-05T21:42:17.605Z,3.00
2023-06-05T21:44:47.033Z,2.87
2023-06-05T21:47:15.440Z,3.40
2023-06-05T21:49:44.039Z,3.50
2023-06-05T21:52:13.412Z,3.57
2023-06-05T21:54:43.562Z,3.10
2023-06-05T21:57:11.718Z,3.00
2023-06-05T21:59:39.644Z,3.70
2023-06-05T22:02:08.919Z,3.50
2023-06-05T22:04:36.766Z,3.30
2023-06-05T22:07:04.888Z,3.20
2023-06-05T22:09:32.910Z,3.40
2023-06-05T22:12:03.755Z,3.27
2023-06-05T22:14:31.461Z,3.43
2023-06-05T22:17:00.287Z,3.03
2023-06-05T22:19:28.811Z,3.43
2023-06-05T22:21:57.924Z,3.27
2023-06-05T22:24:26.512Z,3.50
2023-06-05T22:26:54.243Z,3.63
2023-06-05T22:29:23.903Z,3.77
2023-06-05T22:31:51.763Z,3.63
2023-06-05T22:34:21.220Z,3.50
2023-06-05T22:36:48.998Z,3.10
2023-06-05T22:39:16.853Z,3.70
2023-06-05T22:41:45.042Z,3.53
2023-06-05T22:44:12.844Z,3.70
2023-06-05T22:46:41.978Z,3.23
2023-06-05T22:49:11.105Z,3.70
2023-06-05T22:51:39.331Z,3.43
2023-06-05T22:54:07.061Z,3.40
2023-06-05T22:56:34.730Z,3.70
2023-06-05T22:59:02.553Z,3.43
2023-06-05T23:01:30.515Z,3.47
2023-06-05T23:03:59.672Z,3.53
2023-06-05T23:06:30.040Z,3.23
2023-06-05T23:08:58.926Z,3.60
2023-06-05T23:11:27.473Z,4.10
2023-06-05T23:13:55.205Z,3.20
2023-06-05T23:16:25.066Z,3.40
2023-06-05T23:18:52.873Z,3.33
2023-06-05T23:21:22.036Z,3.30
2023-06-05T23:23:49.858Z,3.40
2023-06-05T23:26:18.269Z,3.47
2023-06-05T23:28:46.489Z,3.13
2023-06-05T23:31:14.385Z,4.00
2023-06-05T23:33:42.321Z,3.57
2023-06-05T23:36:11.913Z,3.07
2023-06-05T23:38:40.945Z,3.43
2023-06-05T23:41:09.370Z,3.30
2023-06-05T23:43:37.493Z,3.30
2023-06-05T23:46:06.627Z,3.07
2023-06-05T23:48:34.383Z,3.13
2023-06-05T23:51:02.132Z,2.93
2023-06-05T23:53:29.863Z,2.87
2023-06-05T23:55:59.201Z,3.17
2023-06-05T23:58:26.935Z,2.83
